createdAt,value
2022-11-13T00:02:00.878Z,8.52
2022-11-13T00:04:47.433Z,8.98
2022-11-13T00:07:33.889Z,10.00
2022-11-13T00:10:20.632Z,8.73
2022-11-13T00:13:07.285Z,7.97
2022-11-13T00:15:58.640Z,9.13
2022-11-13T00:18:47.600Z,8.05
2022-11-13T00:21:34.279Z,8.40
2022-11-13T00:24:21.509Z,8.65
2022-11-13T00:27:08.610Z,7.85
2022-11-13T00:29:55.333Z,9.13
2022-11-13T00:32:42.108Z,8.35
2022-11-13T00:35:30.259Z,7.85
2022-11-13T00:38:16.838Z,7.90
2022-11-13T00:41:04.060Z,8.20
2022-11-13T00:43:50.709Z,8.32
2022-11-13T00:46:37.434Z,9.10
2022-11-13T00:49:23.804Z,8.73
2022-11-13T00:52:11.674Z,10.18
2022-11-13T00:54:58.247Z,12.13
2022-11-13T00:57:44.844Z,12.25
2022-11-13T01:00:32.339Z,7.13
2022-11-13T01:03:19.483Z,8.35
2022-11-13T01:06:12.339Z,7.63
2022-11-13T01:09:00.829Z,9.13
2022-11-13T01:11:47.498Z,8.70
2022-11-13T01:14:34.193Z,8.52
2022-11-13T01:17:20.839Z,9.25
2022-11-13T01:20:07.806Z,9.65
2022-11-13T01:22:54.574Z,8.18
2022-11-13T01:25:43.526Z,8.00
2022-11-13T01:28:30.243Z,7.82
2022-11-13T01:31:19.318Z,7.55
2022-11-13T01:34:06.021Z,8.93
2022-11-13T01:36:53.148Z,9.27
2022-11-13T01:39:40.379Z,8.75
2022-11-13T01:42:28.649Z,7.30
2022-11-13T01:46:06.536Z,7.70
2022-11-13T01:48:59.487Z,9.57
2022-11-13T01:51:50.480Z,9.60
2022-11-13T01:54:42.006Z,7.60
2022-11-13T01:57:30.515Z,7.95
2022-11-13T02:00:17.805Z,8.45
2022-11-13T02:03:05.284Z,7.55
2022-11-13T02:05:52.563Z,9.18
2022-11-13T02:08:39.819Z,9.30
2022-11-13T02:11:26.898Z,6.97
2022-11-13T02:14:16.031Z,7.85
2022-11-13T02:17:08.152Z,6.22
2022-11-13T02:19:59.807Z,7.45
2022-11-13T02:22:53.144Z,7.32
2022-11-13T02:25:42.951Z,7.97
2022-11-13T02:28:30.256Z,7.20
2022-11-13T02:31:17.418Z,8.65
2022-11-13T02:34:04.564Z,7.07
2022-11-13T02:36:51.499Z,9.20
2022-11-13T02:39:38.148Z,7.85
2022-11-13T02:42:26.319Z,8.40
2022-11-13T02:45:13.155Z,6.90
2022-11-13T02:48:01.421Z,7.30
2022-11-13T02:50:48.728Z,10.30
2022-11-13T02:53:35.611Z,7.95
2022-11-13T02:56:23.186Z,11.35
2022-11-13T02:59:11.419Z,8.23
2022-11-13T03:01:57.893Z,7.78
2022-11-13T03:05:10.979Z,8.65
2022-11-13T03:07:51.245Z,10.15
2022-11-13T03:10:37.951Z,6.60
2022-11-13T03:13:24.740Z,9.93
2022-11-13T03:16:14.787Z,6.78
2022-11-13T03:19:01.716Z,8.52
2022-11-13T03:21:48.239Z,10.13
2022-11-13T03:24:35.464Z,8.40
2022-11-13T03:27:22.387Z,10.20
2022-11-13T03:30:10.472Z,8.98
2022-11-13T03:32:59.182Z,19.08
2022-11-13T03:35:47.194Z,9.57
2022-11-13T03:38:33.861Z,9.00
2022-11-13T03:41:20.332Z,11.07
2022-11-13T03:44:07.166Z,9.45
2022-11-13T03:46:54.153Z,8.77
2022-11-13T03:49:41.963Z,7.50
2022-11-13T03:52:28.520Z,7.70
2022-11-13T03:55:15.127Z,9.27
2022-11-13T03:58:01.968Z,10.80
2022-11-13T04:00:49.302Z,8.30
2022-11-13T04:03:36.815Z,10.68
2022-11-13T04:06:25.006Z,8.95
2022-11-13T04:09:12.172Z,9.35
2022-11-13T04:11:58.872Z,9.50
2022-11-13T04:14:45.972Z,9.55
2022-11-13T04:17:32.780Z,8.77
2022-11-13T04:20:19.372Z,12.20
2022-11-13T04:23:11.501Z,9.82
2022-11-13T04:25:59.012Z,10.80
2022-11-13T04:28:46.036Z,10.05
2022-11-13T04:31:32.839Z,11.55
2022-11-13T04:34:19.727Z,10.00
2022-11-13T04:37:06.571Z,9.93
2022-11-13T04:39:54.396Z,9.52
2022-11-13T04:42:49.045Z,10.32
2022-11-13T04:45:36.079Z,13.75
2022-11-13T04:48:22.632Z,11.65
2022-11-13T04:51:09.426Z,9.82
2022-11-13T04:53:55.967Z,9.73
2022-11-13T04:56:44.308Z,10.82
2022-11-13T04:59:31.123Z,13.10
2022-11-13T05:02:18.014Z,13.30
2022-11-13T05:05:05.637Z,11.18
2022-11-13T05:07:53.850Z,11.82
2022-11-13T05:10:40.208Z,14.80
2022-11-13T05:13:31.498Z,15.82
2022-11-13T05:16:17.946Z,19.77
2022-11-13T05:19:06.998Z,19.30
2022-11-13T05:21:53.937Z,20.92
2022-11-13T05:24:40.442Z,19.63
2022-11-13T05:27:26.958Z,18.33
2022-11-13T05:30:15.442Z,19.23
2022-11-13T05:33:01.843Z,17.17
2022-11-13T05:35:48.614Z,16.90
2022-11-13T05:38:35.379Z,22.83
2022-11-13T05:41:23.683Z,19.50
2022-11-13T05:44:10.237Z,16.35
2022-11-13T05:46:58.064Z,18.00
2022-11-13T05:49:44.590Z,19.13
2022-11-13T05:52:31.241Z,20.48
2022-11-13T05:55:22.186Z,18.85
2022-11-13T05:58:09.688Z,18.63
2022-11-13T06:01:06.548Z,20.98
2022-11-13T06:03:56.949Z,17.90
2022-11-13T06:06:43.767Z,18.88
2022-11-13T06:09:30.498Z,17.25
2022-11-13T06:12:17.299Z,18.23
2022-11-13T06:15:03.899Z,16.70
2022-11-13T06:17:50.362Z,19.08
2022-11-13T06:20:38.532Z,22.88
2022-11-13T06:23:25.233Z,18.52
2022-11-13T06:26:14.638Z,23.25
2022-11-13T06:29:02.037Z,17.23
2022-11-13T06:31:48.854Z,21.20
2022-11-13T06:34:35.693Z,20.35
2022-11-13T06:37:23.778Z,16.75
2022-11-13T06:40:11.568Z,18.15
2022-11-13T06:42:58.415Z,15.57
2022-11-13T06:45:45.020Z,18.20
2022-11-13T06:48:31.805Z,18.42
2022-11-13T06:51:20.313Z,21.75
2022-11-13T06:54:08.507Z,18.65
2022-11-13T06:56:55.216Z,22.23
2022-11-13T06:59:43.618Z,16.77
2022-11-13T07:02:32.089Z,18.50
2022-11-13T07:05:19.017Z,20.92
2022-11-13T07:08:05.479Z,20.50
2022-11-13T07:10:57.827Z,22.60
2022-11-13T07:13:45.069Z,17.88
2022-11-13T07:16:56.195Z,25.55
2022-11-13T07:19:38.336Z,19.15
2022-11-13T07:22:25.000Z,19.63
2022-11-13T07:25:11.851Z,19.52
2022-11-13T07:28:00.154Z,16.27
2022-11-13T07:30:47.086Z,18.48
2022-11-13T07:33:34.128Z,14.30
2022-11-13T07:36:20.623Z,19.83
2022-11-13T07:39:07.399Z,17.17
2022-11-13T07:41:53.930Z,21.95
2022-11-13T07:44:54.564Z,19.77
2022-11-13T07:47:42.600Z,15.40
2022-11-13T07:50:31.578Z,20.42
2022-11-13T07:53:18.698Z,16.85
2022-11-13T07:56:06.152Z,19.25
2022-11-13T07:58:52.691Z,22.08
2022-11-13T08:01:40.746Z,17.67
2022-11-13T08:04:27.435Z,20.08
2022-11-13T08:07:14.100Z,20.77
2022-11-13T08:10:01.043Z,20.73
2022-11-13T08:12:48.213Z,19.77
2022-11-13T08:15:36.070Z,21.80
2022-11-13T08:18:23.827Z,20.70
2022-11-13T08:21:14.746Z,18.60
2022-11-13T08:24:01.631Z,19.50
2022-11-13T08:26:48.282Z,20.95
2022-11-13T08:29:37.264Z,21.02
2022-11-13T08:32:24.411Z,18.42
2022-11-13T08:35:17.319Z,21.27
2022-11-13T08:38:06.875Z,16.60
2022-11-13T08:40:54.012Z,20.70
2022-11-13T08:43:40.636Z,19.33
2022-11-13T08:46:27.057Z,20.50
2022-11-13T08:49:13.928Z,18.95
2022-11-13T08:52:02.367Z,25.67
2022-11-13T08:54:49.266Z,21.45
2022-11-13T08:57:35.623Z,20.85
2022-11-13T09:00:22.911Z,20.05
2022-11-13T09:03:12.057Z,20.00
2022-11-13T09:05:58.890Z,19.95
2022-11-13T09:08:47.051Z,25.17
2022-11-13T09:11:33.850Z,20.25
2022-11-13T09:14:20.608Z,20.50
2022-11-13T09:17:07.534Z,21.05
2022-11-13T09:19:54.164Z,20.30
2022-11-13T09:22:40.571Z,21.25
2022-11-13T09:25:36.876Z,21.17
2022-11-13T09:28:24.136Z,17.42
2022-11-13T09:31:11.250Z,20.58
2022-11-13T09:33:57.888Z,18.90
2022-11-13T09:36:44.616Z,19.17
2022-11-13T09:39:31.339Z,20.17
2022-11-13T09:42:23.075Z,20.08
2022-11-13T09:45:15.923Z,19.30
2022-11-13T09:48:13.364Z,20.65
2022-11-13T09:51:05.483Z,18.58
2022-11-13T09:53:52.566Z,19.20
2022-11-13T09:56:44.550Z,19.05
2022-11-13T09:59:38.690Z,18.48
2022-11-13T10:02:34.986Z,19.00
2022-11-13T10:05:24.975Z,19.02
2022-11-13T10:08:15.729Z,18.75
2022-11-13T10:11:10.419Z,20.77
2022-11-13T10:14:00.900Z,19.48
2022-11-13T10:16:53.552Z,20.13
2022-11-13T10:19:46.767Z,18.25
2022-11-13T10:22:38.300Z,17.38
2022-11-13T10:25:27.992Z,15.68
2022-11-13T10:31:25.539Z,18.45
2022-11-13T10:34:14.679Z,18.95
2022-11-13T10:37:21.554Z,22.95
2022-11-13T10:40:09.227Z,18.60
2022-11-13T10:42:55.863Z,20.08
2022-11-13T10:45:42.929Z,15.70
2022-11-13T10:48:32.822Z,18.80
2022-11-13T10:51:27.351Z,18.43
2022-11-13T10:54:26.046Z,21.93
2022-11-13T10:57:30.946Z,20.90
2022-11-13T11:00:23.206Z,19.27
2022-11-13T11:03:10.744Z,22.27
2022-11-13T11:05:59.111Z,17.70
2022-11-13T11:08:47.151Z,18.20
2022-11-13T11:11:51.123Z,20.20
2022-11-13T11:14:43.039Z,16.53
2022-11-13T11:17:35.255Z,18.60
2022-11-13T11:20:27.900Z,18.63
2022-11-13T11:23:23.837Z,19.03
2022-11-13T11:26:17.387Z,17.03
2022-11-13T11:29:14.213Z,16.95
2022-11-13T11:32:10.333Z,18.17
2022-11-13T11:35:01.172Z,17.13
2022-11-13T11:37:56.822Z,17.35
2022-11-13T11:40:46.348Z,18.80
2022-11-13T11:43:42.922Z,17.90
2022-11-13T11:46:31.075Z,18.45
2022-11-13T11:49:17.554Z,20.02
2022-11-13T11:52:14.141Z,20.40
2022-11-13T11:55:14.298Z,19.52
2022-11-13T11:58:10.551Z,19.35
2022-11-13T12:01:07.611Z,18.70
2022-11-13T12:04:10.266Z,17.35
2022-11-13T12:07:07.593Z,19.85
2022-11-13T12:10:04.147Z,19.45
2022-11-13T12:13:01.652Z,19.08
2022-11-13T12:15:53.411Z,17.98
2022-11-13T12:18:54.588Z,19.58
2022-11-13T12:21:49.212Z,18.85
2022-11-13T12:24:59.571Z,20.05
2022-11-13T12:27:51.998Z,19.40
2022-11-13T12:30:47.652Z,18.08
2022-11-13T12:33:43.304Z,15.98
2022-11-13T12:36:32.248Z,19.38
2022-11-13T12:39:35.294Z,18.17
2022-11-13T12:42:30.192Z,21.30
2022-11-13T12:45:25.932Z,21.73
2022-11-13T12:48:23.671Z,18.38
2022-11-13T12:51:11.983Z,18.90
2022-11-13T12:54:00.337Z,17.92
2022-11-13T12:56:47.166Z,19.33
2022-11-13T12:59:36.922Z,15.82
2022-11-13T13:02:33.191Z,18.77
2022-11-13T13:05:30.495Z,17.08
2022-11-13T13:08:32.752Z,16.25
2022-11-13T13:11:28.076Z,19.70
2022-11-13T13:14:34.543Z,18.40
2022-11-13T13:17:24.494Z,16.27
2022-11-13T13:20:34.291Z,16.23
2022-11-13T13:23:29.207Z,15.10
2022-11-13T13:26:18.977Z,16.47
2022-11-13T13:29:18.048Z,19.83
2022-11-13T13:32:19.421Z,22.00
2022-11-13T13:35:16.445Z,18.10
2022-11-13T13:38:12.600Z,19.63
2022-11-13T13:41:19.538Z,21.20
2022-11-13T13:44:27.326Z,22.63
2022-11-13T13:47:23.178Z,20.50
2022-11-13T13:50:15.791Z,16.90
2022-11-13T13:53:03.969Z,23.50
2022-11-13T13:55:54.068Z,18.60
2022-11-13T13:58:41.473Z,18.97
2022-11-13T14:01:31.166Z,19.03
2022-11-13T14:04:21.698Z,15.53
2022-11-13T14:07:21.494Z,20.87
2022-11-13T14:10:15.660Z,19.33
2022-11-13T14:13:02.017Z,19.03
2022-11-13T14:15:48.923Z,23.63
2022-11-13T14:18:37.101Z,17.87
2022-11-13T14:21:25.051Z,24.90
2022-11-13T14:24:19.786Z,24.80
2022-11-13T14:27:09.651Z,17.10
2022-11-13T14:29:58.329Z,19.03
2022-11-13T14:32:47.333Z,18.10
2022-11-13T14:35:35.556Z,20.30
2022-11-13T14:38:25.732Z,20.00
2022-11-13T14:41:24.470Z,18.10
2022-11-13T14:44:12.804Z,19.97
2022-11-13T14:47:05.013Z,24.60
2022-11-13T14:49:51.584Z,23.30
2022-11-13T14:52:39.690Z,24.60
2022-11-13T14:55:28.696Z,21.10
2022-11-13T14:58:15.844Z,24.55
2022-11-13T15:01:16.091Z,21.45
2022-11-13T15:04:03.107Z,22.88
2022-11-13T15:06:50.910Z,24.60
2022-11-13T15:09:39.205Z,29.80
2022-11-13T15:12:26.458Z,24.25
2022-11-13T15:15:16.290Z,28.38
2022-11-13T15:18:04.186Z,32.72
2022-11-13T15:20:50.671Z,31.05
2022-11-13T15:23:37.579Z,31.75
2022-11-13T15:26:25.928Z,29.33
2022-11-13T15:29:12.421Z,36.15
2022-11-13T15:31:59.368Z,29.35
2022-11-13T15:34:45.930Z,32.80
2022-11-13T15:37:33.200Z,27.75
2022-11-13T15:40:20.092Z,30.55
2022-11-13T15:43:15.495Z,27.67
2022-11-13T15:46:02.085Z,28.52
2022-11-13T15:48:49.739Z,30.65
2022-11-13T15:51:42.273Z,34.47
2022-11-13T15:54:32.612Z,31.05
2022-11-13T15:57:21.727Z,35.00
2022-11-13T16:00:15.337Z,35.40
2022-11-13T16:03:04.474Z,32.97
2022-11-13T16:05:51.428Z,30.27
2022-11-13T16:08:38.223Z,35.33
2022-11-13T16:11:25.113Z,27.23
2022-11-13T16:14:11.692Z,33.33
2022-11-13T16:17:00.130Z,31.10
2022-11-13T16:19:48.926Z,36.80
2022-11-13T16:22:35.451Z,33.30
2022-11-13T16:25:23.469Z,31.40
2022-11-13T16:28:16.213Z,36.05
2022-11-13T16:31:03.402Z,33.15
2022-11-13T16:33:52.196Z,32.55
2022-11-13T16:36:39.107Z,34.50
2022-11-13T16:39:25.591Z,37.05
2022-11-13T16:42:12.506Z,38.10
2022-11-13T16:44:58.848Z,43.13
2022-11-13T16:47:46.469Z,35.53
2022-11-13T16:50:36.927Z,39.83
2022-11-13T16:53:23.390Z,39.17
2022-11-13T16:56:15.130Z,42.88
2022-11-13T16:59:01.952Z,46.75
2022-11-13T17:01:48.382Z,45.70
2022-11-13T17:04:35.181Z,46.40
2022-11-13T17:07:23.675Z,55.22
2022-11-13T17:13:20.595Z,52.53
2022-11-13T17:16:07.477Z,54.60
2022-11-13T17:18:54.612Z,51.90
2022-11-13T17:21:44.447Z,53.55
2022-11-13T17:24:32.719Z,57.08
2022-11-13T17:27:19.714Z,52.72
2022-11-13T17:30:07.334Z,52.20
2022-11-13T17:32:54.219Z,47.70
2022-11-13T17:35:40.761Z,50.72
2022-11-13T17:38:28.431Z,50.55
2022-11-13T17:41:17.994Z,48.13
2022-11-13T17:44:05.244Z,51.15
2022-11-13T17:46:52.035Z,65.85
2022-11-13T17:49:38.526Z,52.28
2022-11-13T17:52:25.258Z,64.30
2022-11-13T17:55:13.982Z,69.32
2022-11-13T17:58:02.972Z,62.90
2022-11-13T18:00:49.933Z,64.13
2022-11-13T18:03:36.734Z,64.93
2022-11-13T18:06:24.158Z,64.22
2022-11-13T18:09:11.116Z,60.67
2022-11-13T18:11:57.862Z,55.97
2022-11-13T18:14:52.201Z,67.13
2022-11-13T18:17:39.003Z,61.30
2022-11-13T18:20:25.898Z,73.90
2022-11-13T18:23:12.783Z,63.28
2022-11-13T18:26:07.855Z,63.40
2022-11-13T18:28:54.520Z,61.67
2022-11-13T18:31:42.928Z,63.65
2022-11-13T18:34:30.074Z,75.50
2022-11-13T18:37:16.818Z,68.93
2022-11-13T18:40:03.437Z,64.78
2022-11-13T18:42:50.915Z,60.58
2022-11-13T18:45:37.646Z,74.28
2022-11-13T18:48:26.109Z,65.72
2022-11-13T18:51:14.749Z,68.32
2022-11-13T18:54:03.266Z,60.85
2022-11-13T18:56:52.297Z,68.30
2022-11-13T18:59:39.116Z,67.80
2022-11-13T19:02:26.219Z,99.30
2022-11-13T19:05:14.584Z,76.10
2022-11-13T19:08:01.261Z,83.45
2022-11-13T19:10:48.016Z,71.13
2022-11-13T19:13:35.147Z,79.40
2022-11-13T19:16:23.686Z,72.03
2022-11-13T19:19:16.655Z,72.75
2022-11-13T19:22:04.558Z,73.57
2022-11-13T19:24:51.502Z,69.32
2022-11-13T19:27:38.364Z,68.25
2022-11-13T19:30:24.970Z,69.68
2022-11-13T19:33:11.714Z,80.35
2022-11-13T19:35:58.135Z,72.95
2022-11-13T19:38:46.458Z,70.68
2022-11-13T19:41:33.579Z,69.00
2022-11-13T19:44:20.457Z,66.35
2022-11-13T19:47:07.281Z,70.57
2022-11-13T19:49:53.841Z,79.05
2022-11-13T19:52:40.564Z,72.32
2022-11-13T19:55:29.130Z,66.18
2022-11-13T19:58:15.913Z,62.78
2022-11-13T20:01:09.781Z,76.68
2022-11-13T20:03:57.780Z,58.88
2022-11-13T20:06:44.437Z,66.78
2022-11-13T20:09:31.542Z,65.40
2022-11-13T20:12:19.460Z,79.30
2022-11-13T20:15:06.983Z,64.43
2022-11-13T20:17:53.425Z,66.45
2022-11-13T20:20:44.375Z,66.25
2022-11-13T20:23:31.615Z,63.92
2022-11-13T20:26:19.211Z,68.90
2022-11-13T20:29:07.217Z,66.28
2022-11-13T20:31:53.662Z,60.63
2022-11-13T20:34:40.399Z,66.53
2022-11-13T20:37:27.308Z,77.45
2022-11-13T20:40:14.062Z,72.38
2022-11-13T20:43:00.562Z,71.63
2022-11-13T20:45:48.814Z,86.25
2022-11-13T20:48:35.399Z,84.35
2022-11-13T20:51:26.543Z,72.95
2022-11-13T20:54:14.018Z,80.97
2022-11-13T20:57:00.811Z,73.57
2022-11-13T20:59:47.403Z,75.80
2022-11-13T21:02:35.397Z,74.43
2022-11-13T21:05:22.424Z,70.07
2022-11-13T21:08:11.467Z,71.47
2022-11-13T21:11:00.305Z,68.55
2022-11-13T21:13:49.012Z,72.80
2022-11-13T21:16:35.849Z,69.90
2022-11-13T21:19:24.759Z,56.60
2022-11-13T21:22:11.378Z,62.03
2022-11-13T21:24:58.256Z,64.50
2022-11-13T21:27:44.748Z,66.68
2022-11-13T21:30:31.563Z,66.03
2022-11-13T21:33:18.037Z,72.65
2022-11-13T21:36:07.971Z,63.67
2022-11-13T21:38:56.108Z,59.78
2022-11-13T21:41:42.806Z,62.70
2022-11-13T21:44:29.666Z,71.88
2022-11-13T21:47:16.595Z,67.47
2022-11-13T21:50:03.255Z,74.38
2022-11-13T21:52:50.946Z,70.15
2022-11-13T21:55:37.464Z,69.68
2022-11-13T21:58:31.356Z,71.78
2022-11-13T22:01:18.217Z,71.28
2022-11-13T22:04:04.978Z,77.97
2022-11-13T22:06:51.997Z,74.25
2022-11-13T22:09:40.176Z,71.78
2022-11-13T22:12:26.537Z,77.30
2022-11-13T22:15:13.077Z,68.53
2022-11-13T22:18:00.071Z,76.82
2022-11-13T22:20:48.841Z,80.88
2022-11-13T22:23:35.904Z,73.28
2022-11-13T22:26:25.788Z,77.75
2022-11-13T22:29:13.095Z,71.65
2022-11-13T22:31:59.698Z,65.65
2022-11-13T22:34:46.447Z,61.40
2022-11-13T22:37:33.327Z,59.03
2022-11-13T22:40:19.886Z,63.30
2022-11-13T22:43:08.063Z,73.35
2022-11-13T22:45:54.940Z,68.18
2022-11-13T22:48:42.988Z,71.70
2022-11-13T22:51:31.407Z,74.07
2022-11-13T22:54:17.951Z,70.13
2022-11-13T22:57:05.181Z,60.78
2022-11-13T22:59:53.536Z,63.22
2022-11-13T23:02:45.912Z,72.15
2022-11-13T23:05:35.984Z,61.55
2022-11-13T23:08:22.432Z,64.72
2022-11-13T23:11:12.987Z,66.22
2022-11-13T23:14:02.081Z,70.55
2022-11-13T23:16:50.218Z,72.97
2022-11-13T23:19:36.712Z,73.32
2022-11-13T23:22:23.618Z,73.97
2022-11-13T23:25:11.129Z,67.82
2022-11-13T23:27:57.810Z,70.57
2022-11-13T23:30:44.509Z,72.53
2022-11-13T23:33:33.148Z,66.35
2022-11-13T23:36:20.204Z,62.58
2022-11-13T23:39:06.906Z,62.97
2022-11-13T23:41:53.484Z,64.53
2022-11-13T23:44:39.987Z,58.83
2022-11-13T23:47:26.724Z,70.68
2022-11-13T23:50:15.530Z,67.03
2022-11-13T23:53:02.076Z,71.00
2022-11-13T23:55:48.692Z,63.67
2022-11-13T23:58:35.592Z,77.40
